Time;durP1;ratioP1;P1;durP2;ratioP2;P2;SDS_P1;SDS_P2;PMS_P1;PMS_P2;Temp;Humidity;BMP_temperature;BMP_pressure;BME280_temperature;BME280_humidity;BME280_pressure;Samples;Min_cycle;Max_cycle;Signal;HPM_P1;HPM_P2
2022/06/08 00:00:28;;;;;;;3.45;0.90;;;;;;;;;;5044755;28;20090;-76
2022/06/08 00:03:05;;;;;;;1.30;1.20;;;;;;;;;;5042376;28;20043;-76
2022/06/08 00:05:30;;;;;;;1.00;0.82;;;;;;;;;;5047449;28;20036;-76
2022/06/08 00:07:56;;;;;;;2.85;1.00;;;;;;;;;;5044336;28;20033;-75
2022/06/08 00:10:21;;;;;;;0.80;0.80;;;;;;;;;;5043581;28;20140;-75
2022/06/08 00:12:47;;;;;;;1.05;0.75;;;;;;;;;;5043887;28;20020;-75
2022/06/08 00:15:13;;;;;;;2.35;0.70;;;;;;;;;;5046585;28;20471;-76
2022/06/08 00:17:39;;;;;;;1.00;0.90;;;;;;;;;;5052316;28;20051;-75
2022/06/08 00:20:06;;;;;;;0.88;0.77;;;;;;;;;;5043671;28;20151;-74
2022/06/08 00:22:31;;;;;;;1.40;1.02;;;;;;;;;;5044558;28;20054;-75
2022/06/08 00:24:57;;;;;;;2.22;1.20;;;;;;;;;;5043439;28;20515;-75
2022/06/08 00:27:22;;;;;;;1.55;1.00;;;;;;;;;;5048736;28;20501;-75
2022/06/08 00:29:48;;;;;;;1.20;0.90;;;;;;;;;;5043913;28;20040;-75
2022/06/08 00:32:13;;;;;;;1.10;0.88;;;;;;;;;;5042593;28;20020;-75
2022/06/08 00:34:38;;;;;;;3.70;0.95;;;;;;;;;;5046337;28;20074;-75
2022/06/08 00:37:04;;;;;;;0.85;0.85;;;;;;;;;;5045660;28;20032;-75
2022/06/08 00:39:29;;;;;;;1.15;0.90;;;;;;;;;;5043807;28;20033;-75
2022/06/08 00:41:59;;;;;;;1.83;0.90;;;;;;;;;;5046560;28;20035;-75
2022/06/08 00:44:27;;;;;;;1.35;0.77;;;;;;;;;;5047357;28;20644;-75
2022/06/08 00:46:54;;;;;;;2.05;0.90;;;;;;;;;;5045502;28;20498;-75
2022/06/08 00:49:24;;;;;;;2.78;0.90;;;;;;;;;;5047736;28;20033;-75
2022/06/08 00:51:50;;;;;;;2.58;0.80;;;;;;;;;;5046653;28;20021;-75
2022/06/08 00:54:25;;;;;;;1.05;0.90;;;;;;;;;;5047180;28;20075;-75
2022/06/08 00:56:58;;;;;;;1.10;1.00;;;;;;;;;;5047708;28;20031;-75
2022/06/08 00:59:23;;;;;;;1.45;1.33;;;;;;;;;;5040343;28;20029;-75
2022/06/08 01:01:49;;;;;;;3.47;1.00;;;;;;;;;;5047476;28;20029;-75
2022/06/08 01:04:17;;;;;;;0.93;0.70;;;;;;;;;;5051145;28;20060;-75
2022/06/08 01:06:47;;;;;;;1.55;1.10;;;;;;;;;;5047742;28;20601;-75
2022/06/08 01:09:19;;;;;;;2.30;1.10;;;;;;;;;;5044957;28;20025;-75
2022/06/08 01:11:46;;;;;;;1.45;1.15;;;;;;;;;;5042512;28;20039;-75
2022/06/08 01:14:14;;;;;;;1.42;0.75;;;;;;;;;;5046973;28;20446;-74
2022/06/08 01:16:47;;;;;;;1.30;1.10;;;;;;;;;;5048481;28;20455;-74
2022/06/08 01:19:12;;;;;;;3.42;1.50;;;;;;;;;;5046054;28;20605;-75
2022/06/08 01:21:37;;;;;;;1.20;1.10;;;;;;;;;;5046102;28;20032;-74
2022/06/08 01:24:07;;;;;;;1.75;1.00;;;;;;;;;;5047247;28;20029;-74
2022/06/08 01:26:52;;;;;;;1.08;0.98;;;;;;;;;;5047703;28;20040;-75
2022/06/08 01:30:00;;;;;;;3.05;1.13;;;;;;;;;;5050338;28;20503;-75
2022/06/08 01:32:32;;;;;;;1.10;0.98;;;;;;;;;;5042136;28;20044;-75
2022/06/08 01:35:13;;;;;;;2.00;1.10;;;;;;;;;;5043105;28;20111;-75
2022/06/08 01:38:11;;;;;;;1.50;1.20;;;;;;;;;;5048141;28;20059;-75
2022/06/08 01:40:59;;;;;;;1.58;1.15;;;;;;;;;;5046376;28;20048;-75
2022/06/08 01:43:27;;;;;;;2.13;1.42;;;;;;;;;;5040018;28;20040;-75
2022/06/08 01:46:04;;;;;;;2.30;1.50;;;;;;;;;;5045177;28;20024;-75
2022/06/08 01:48:57;;;;;;;1.58;1.30;;;;;;;;;;5045734;28;20522;-75
2022/06/08 01:51:44;;;;;;;1.98;1.20;;;;;;;;;;5038944;28;20095;-75
2022/06/08 01:54:37;;;;;;;4.28;1.73;;;;;;;;;;5043910;28;20040;-74
2022/06/08 01:57:26;;;;;;;4.25;1.50;;;;;;;;;;5046433;28;20060;-75
2022/06/08 02:00:11;;;;;;;1.25;1.00;;;;;;;;;;5045351;28;20619;-74
2022/06/08 02:02:48;;;;;;;2.42;1.10;;;;;;;;;;5046406;28;20049;-75
2022/06/08 02:05:16;;;;;;;1.27;1.17;;;;;;;;;;5049486;28;20025;-75
2022/06/08 02:07:48;;;;;;;1.48;1.10;;;;;;;;;;5044407;28;20494;-75
2022/06/08 02:10:40;;;;;;;2.97;1.10;;;;;;;;;;5046100;28;20039;-75
2022/06/08 02:13:36;;;;;;;0.90;0.88;;;;;;;;;;5045618;28;20056;-74
2022/06/08 02:16:13;;;;;;;2.50;1.20;;;;;;;;;;5047117;28;20029;-74
2022/06/08 02:18:47;;;;;;;1.40;1.30;;;;;;;;;;5040191;28;20090;-74
2022/06/08 02:21:23;;;;;;;2.85;1.15;;;;;;;;;;5046781;28;20049;-75
2022/06/08 02:23:53;;;;;;;2.67;1.10;;;;;;;;;;5044256;28;20028;-75
2022/06/08 02:26:29;;;;;;;2.17;1.10;;;;;;;;;;5037600;28;20037;-75
2022/06/08 02:29:07;;;;;;;2.33;1.27;;;;;;;;;;5042237;28;20025;-75
2022/06/08 02:31:38;;;;;;;1.65;1.02;;;;;;;;;;5045416;28;20417;-75
2022/06/08 02:34:28;;;;;;;1.35;1.25;;;;;;;;;;5043732;28;20490;-76
2022/06/08 02:37:03;;;;;;;1.95;1.00;;;;;;;;;;5042232;28;20111;-76
2022/06/08 02:39:35;;;;;;;2.65;1.10;;;;;;;;;;5042845;28;20025;-76
2022/06/08 02:42:08;;;;;;;1.30;1.20;;;;;;;;;;5044710;28;20387;-76
2022/06/08 02:44:38;;;;;;;2.15;1.10;;;;;;;;;;5046080;28;20715;-76
2022/06/08 02:47:05;;;;;;;1.30;1.20;;;;;;;;;;5045716;28;20027;-76
2022/06/08 02:49:36;;;;;;;4.10;1.23;;;;;;;;;;5045971;28;20017;-76
2022/06/08 02:52:06;;;;;;;1.35;1.10;;;;;;;;;;5044473;28;20112;-76
2022/06/08 02:54:32;;;;;;;1.55;1.00;;;;;;;;;;5043706;28;20561;-76
2022/06/08 02:57:23;;;;;;;2.20;1.27;;;;;;;;;;5043936;28;20082;-76
2022/06/08 03:00:01;;;;;;;2.30;1.38;;;;;;;;;;5044481;28;20054;-76
2022/06/08 03:02:32;;;;;;;3.72;1.30;;;;;;;;;;5040927;28;20074;-76
2022/06/08 03:05:15;;;;;;;3.77;1.40;;;;;;;;;;5045560;28;20471;-75
2022/06/08 03:08:06;;;;;;;1.35;1.23;;;;;;;;;;5048399;28;20108;-76
2022/06/08 03:10:34;;;;;;;2.45;1.30;;;;;;;;;;5039358;28;20025;-76
2022/06/08 03:13:14;;;;;;;3.17;1.45;;;;;;;;;;5044655;28;20566;-76
2022/06/08 03:15:41;;;;;;;2.80;1.88;;;;;;;;;;5038863;28;20044;-76
2022/06/08 03:18:06;;;;;;;2.78;1.50;;;;;;;;;;5044691;28;20498;-75
2022/06/08 03:20:32;;;;;;;1.50;1.35;;;;;;;;;;5045519;28;20033;-77
2022/06/08 03:22:58;;;;;;;2.15;1.50;;;;;;;;;;5043856;28;20437;-74
2022/06/08 03:25:24;;;;;;;3.05;1.60;;;;;;;;;;5049598;28;20021;-78
2022/06/08 03:27:50;;;;;;;2.15;1.70;;;;;;;;;;5045092;28;20071;-74
2022/06/08 03:30:16;;;;;;;1.65;1.50;;;;;;;;;;5044164;28;20060;-76
2022/06/08 03:32:42;;;;;;;3.08;1.67;;;;;;;;;;5045270;28;20057;-75
2022/06/08 03:35:08;;;;;;;1.60;1.40;;;;;;;;;;5044706;28;20085;-76
2022/06/08 03:37:34;;;;;;;3.90;1.55;;;;;;;;;;5051631;28;20124;-76
2022/06/08 03:39:59;;;;;;;1.92;1.60;;;;;;;;;;5044719;28;20108;-75
2022/06/08 03:42:24;;;;;;;3.22;1.80;;;;;;;;;;5044098;28;20033;-75
2022/06/08 03:44:50;;;;;;;2.33;1.60;;;;;;;;;;5044548;28;20037;-75
2022/06/08 03:47:20;;;;;;;2.33;1.63;;;;;;;;;;5045264;28;20036;-75
2022/06/08 03:49:47;;;;;;;2.55;1.65;;;;;;;;;;5043452;28;20029;-76
2022/06/08 03:52:20;;;;;;;3.90;2.10;;;;;;;;;;5042983;28;20487;-77
2022/06/08 03:54:50;;;;;;;3.92;1.80;;;;;;;;;;5044268;28;20029;-77
2022/06/08 03:57:16;;;;;;;4.47;1.70;;;;;;;;;;5057950;28;20033;-77
2022/06/08 03:59:44;;;;;;;1.90;1.52;;;;;;;;;;5051287;28;20037;-81
2022/06/08 04:02:11;;;;;;;2.63;1.80;;;;;;;;;;5055349;28;20040;-80
2022/06/08 04:04:37;;;;;;;2.13;1.70;;;;;;;;;;5055252;28;20028;-80
2022/06/08 04:07:03;;;;;;;2.85;1.90;;;;;;;;;;5056455;28;20048;-80
2022/06/08 04:09:28;;;;;;;3.90;2.00;;;;;;;;;;5055343;28;20220;-80
2022/06/08 04:11:53;;;;;;;4.78;2.38;;;;;;;;;;5051607;28;20391;-79
2022/06/08 04:14:19;;;;;;;3.15;2.80;;;;;;;;;;5045789;28;20082;-77
2022/06/08 04:16:44;;;;;;;3.65;2.92;;;;;;;;;;5048360;28;20116;-78
2022/06/08 04:19:09;;;;;;;3.67;2.63;;;;;;;;;;5052312;28;20078;-77
2022/06/08 04:21:35;;;;;;;4.57;2.50;;;;;;;;;;5058480;28;20029;-78
2022/06/08 04:24:00;;;;;;;58.72;4.05;;;;;;;;;;5050389;28;20029;-77
2022/06/08 04:26:27;;;;;;;3.72;2.70;;;;;;;;;;5051218;28;20029;-77
2022/06/08 04:28:52;;;;;;;5.28;2.85;;;;;;;;;;5055294;28;20032;-78
2022/06/08 04:31:19;;;;;;;18.80;2.75;;;;;;;;;;5059763;28;20032;-78
2022/06/08 04:33:44;;;;;;;6.50;2.83;;;;;;;;;;5057416;28;20104;-78
2022/06/08 04:36:11;;;;;;;5.55;2.75;;;;;;;;;;5058978;28;20106;-78
2022/06/08 04:38:37;;;;;;;12.02;2.85;;;;;;;;;;5061664;28;20028;-77
2022/06/08 04:41:03;;;;;;;9.00;3.22;;;;;;;;;;5060465;28;20024;-78
2022/06/08 04:43:28;;;;;;;5.55;3.50;;;;;;;;;;5066413;28;20024;-78
2022/06/08 04:45:53;;;;;;;4.68;3.60;;;;;;;;;;5062562;28;20383;-77
2022/06/08 04:48:19;;;;;;;4.40;3.60;;;;;;;;;;5067181;28;20039;-77
2022/06/08 04:50:45;;;;;;;4.20;3.15;;;;;;;;;;5062736;28;20025;-77
2022/06/08 04:53:11;;;;;;;6.88;3.20;;;;;;;;;;5065342;28;20031;-78
2022/06/08 04:55:36;;;;;;;15.20;3.67;;;;;;;;;;5062621;28;20029;-77
2022/06/08 04:58:03;;;;;;;7.03;3.38;;;;;;;;;;5062472;28;20033;-78
2022/06/08 05:00:29;;;;;;;6.88;3.45;;;;;;;;;;5064145;28;20036;-79
2022/06/08 05:02:55;;;;;;;4.60;3.10;;;;;;;;;;5058446;28;20036;-77
2022/06/08 05:05:25;;;;;;;4.82;3.47;;;;;;;;;;5063120;28;20025;-78
2022/06/08 05:07:52;;;;;;;8.02;3.80;;;;;;;;;;5055108;28;20502;-78
2022/06/08 05:10:18;;;;;;;4.22;3.25;;;;;;;;;;5048745;28;20078;-78
2022/06/08 05:12:44;;;;;;;3.72;3.00;;;;;;;;;;5051023;28;20078;-79
2022/06/08 05:15:16;;;;;;;3.90;3.40;;;;;;;;;;5059909;28;20436;-78
2022/06/08 05:17:42;;;;;;;3.53;3.03;;;;;;;;;;5047674;28;20078;-77
2022/06/08 05:20:08;;;;;;;5.00;2.95;;;;;;;;;;5045400;28;20450;-80
2022/06/08 05:22:36;;;;;;;3.47;2.72;;;;;;;;;;5050947;28;20071;-78
2022/06/08 05:25:04;;;;;;;3.65;3.22;;;;;;;;;;5009588;28;1024644;-79
2022/06/08 05:27:29;;;;;;;6.28;3.00;;;;;;;;;;5048873;28;20032;-78
2022/06/08 05:29:54;;;;;;;3.15;2.85;;;;;;;;;;5050539;28;20031;-78
2022/06/08 05:32:20;;;;;;;4.85;2.88;;;;;;;;;;5042930;28;20039;-78
2022/06/08 05:34:45;;;;;;;3.70;2.80;;;;;;;;;;5047952;28;20017;-77
2022/06/08 05:37:10;;;;;;;3.13;2.80;;;;;;;;;;5049406;28;20040;-76
2022/06/08 05:39:36;;;;;;;4.13;2.95;;;;;;;;;;5058692;28;20556;-78
2022/06/08 05:42:01;;;;;;;4.40;2.97;;;;;;;;;;5046614;28;20082;-78
2022/06/08 05:44:27;;;;;;;6.25;2.80;;;;;;;;;;5050026;28;20043;-79
2022/06/08 05:46:53;;;;;;;3.90;2.67;;;;;;;;;;5049296;28;20394;-76
2022/06/08 05:49:18;;;;;;;4.97;2.80;;;;;;;;;;5050131;28;20021;-78
2022/06/08 05:51:44;;;;;;;2.72;2.50;;;;;;;;;;5050197;28;20052;-78
2022/06/08 05:54:11;;;;;;;4.03;2.85;;;;;;;;;;5052088;28;20558;-77
2022/06/08 05:56:37;;;;;;;4.88;3.03;;;;;;;;;;5053004;28;20294;-78
2022/06/08 05:59:04;;;;;;;4.88;2.95;;;;;;;;;;5051753;28;20033;-77
2022/06/08 06:01:30;;;;;;;4.28;2.92;;;;;;;;;;5049951;28;20402;-77
2022/06/08 06:03:56;;;;;;;8.80;3.13;;;;;;;;;;5041717;28;20257;-76
2022/06/08 06:06:21;;;;;;;3.78;2.30;;;;;;;;;;5041841;28;20039;-75
2022/06/08 06:08:46;;;;;;;3.58;2.67;;;;;;;;;;5045539;28;20042;-78
2022/06/08 06:11:14;;;;;;;4.78;2.83;;;;;;;;;;5047293;28;20039;-76
2022/06/08 06:13:41;;;;;;;7.78;3.22;;;;;;;;;;5046581;28;20048;-76
2022/06/08 06:16:06;;;;;;;5.95;2.40;;;;;;;;;;5050032;28;20132;-75
2022/06/08 06:18:32;;;;;;;3.50;2.40;;;;;;;;;;5043714;28;20489;-75
2022/06/08 06:20:58;;;;;;;4.57;2.42;;;;;;;;;;5044477;28;20495;-75
2022/06/08 06:23:25;;;;;;;4.40;2.42;;;;;;;;;;5042939;28;20095;-77
2022/06/08 06:25:50;;;;;;;3.47;2.22;;;;;;;;;;5044981;28;20403;-76
2022/06/08 06:28:15;;;;;;;2.17;1.80;;;;;;;;;;5040671;28;20055;-76
2022/06/08 06:30:41;;;;;;;3.75;2.00;;;;;;;;;;5042968;28;20490;-76
2022/06/08 06:33:10;;;;;;;4.03;2.08;;;;;;;;;;5039122;28;20021;-76
2022/06/08 06:35:35;;;;;;;4.60;2.10;;;;;;;;;;5044898;28;20040;-77
2022/06/08 06:38:00;;;;;;;3.95;2.00;;;;;;;;;;5049701;28;20029;-77
2022/06/08 06:40:25;;;;;;;2.70;2.00;;;;;;;;;;5053305;28;20056;-77
2022/06/08 06:42:51;;;;;;;3.22;2.00;;;;;;;;;;5054015;28;20099;-77
2022/06/08 06:45:17;;;;;;;5.10;2.08;;;;;;;;;;5054517;28;20082;-76
2022/06/08 06:47:42;;;;;;;3.33;2.10;;;;;;;;;;5054509;28;20036;-77
2022/06/08 06:50:10;;;;;;;6.13;2.38;;;;;;;;;;5053045;28;20036;-79
2022/06/08 06:52:36;;;;;;;4.65;2.30;;;;;;;;;;5056424;28;20068;-78
2022/06/08 06:55:01;;;;;;;5.82;2.00;;;;;;;;;;5054858;28;20017;-77
2022/06/08 06:57:26;;;;;;;5.00;1.85;;;;;;;;;;5057616;28;20035;-78
2022/06/08 06:59:52;;;;;;;3.58;2.40;;;;;;;;;;5058675;28;20021;-78
2022/06/08 07:02:20;;;;;;;4.68;2.33;;;;;;;;;;5059868;28;20024;-79
2022/06/08 07:04:46;;;;;;;4.95;2.45;;;;;;;;;;5060290;28;20084;-77
2022/06/08 07:07:12;;;;;;;5.25;2.50;;;;;;;;;;5061368;28;20025;-79
2022/06/08 07:09:38;;;;;;;5.68;2.22;;;;;;;;;;5064049;28;20035;-79
2022/06/08 07:12:05;;;;;;;4.68;2.47;;;;;;;;;;5061583;28;20032;-78
2022/06/08 07:14:30;;;;;;;4.45;2.40;;;;;;;;;;5058931;28;20032;-77
2022/06/08 07:16:56;;;;;;;5.13;2.50;;;;;;;;;;5059355;28;20415;-78
2022/06/08 07:19:22;;;;;;;4.75;2.40;;;;;;;;;;5056681;28;20021;-79
2022/06/08 07:21:47;;;;;;;5.63;2.67;;;;;;;;;;5057555;28;20528;-79
2022/06/08 07:24:19;;;;;;;6.50;2.60;;;;;;;;;;5052028;28;20037;-80
2022/06/08 07:26:45;;;;;;;6.30;2.53;;;;;;;;;;5043502;28;20033;-82
2022/06/08 07:29:11;;;;;;;5.00;2.53;;;;;;;;;;5047230;28;20017;-81
2022/06/08 07:31:37;;;;;;;6.40;2.80;;;;;;;;;;5049907;28;20067;-79
2022/06/08 07:34:02;;;;;;;7.03;2.13;;;;;;;;;;5047166;28;20454;-80
2022/06/08 07:36:28;;;;;;;8.35;2.83;;;;;;;;;;5047544;28;20489;-79
2022/06/08 07:38:53;;;;;;;4.28;2.22;;;;;;;;;;5051911;28;20087;-80
2022/06/08 07:41:18;;;;;;;4.47;2.40;;;;;;;;;;5049332;28;20431;-79
2022/06/08 07:43:44;;;;;;;4.82;2.40;;;;;;;;;;5050693;28;20064;-80
2022/06/08 07:46:09;;;;;;;3.33;2.10;;;;;;;;;;5052593;28;20071;-79
2022/06/08 07:51:20;;;;;;;6.22;2.10;;;;;;;;;;5049483;28;20048;-77
2022/06/08 07:53:45;;;;;;;5.93;2.38;;;;;;;;;;5055232;28;20029;-79
2022/06/08 07:56:10;;;;;;;7.15;2.10;;;;;;;;;;5056823;28;20036;-77
2022/06/08 07:58:36;;;;;;;5.22;2.15;;;;;;;;;;5055244;28;20028;-76
2022/06/08 08:01:01;;;;;;;4.63;2.10;;;;;;;;;;5050146;28;20035;-77
2022/06/08 08:03:27;;;;;;;4.43;2.17;;;;;;;;;;5052883;28;20036;-76
2022/06/08 08:05:53;;;;;;;6.93;2.05;;;;;;;;;;5049875;28;20044;-77
2022/06/08 08:08:19;;;;;;;7.25;2.40;;;;;;;;;;5047396;28;20338;-76
2022/06/08 08:10:45;;;;;;;4.63;2.10;;;;;;;;;;5047078;28;20031;-75
2022/06/08 08:13:11;;;;;;;3.85;1.92;;;;;;;;;;5047300;28;20108;-76
2022/06/08 08:15:37;;;;;;;5.85;2.63;;;;;;;;;;5045104;28;20474;-75
2022/06/08 08:18:02;;;;;;;6.93;2.30;;;;;;;;;;5047024;28;20032;-75
2022/06/08 08:20:29;;;;;;;3.45;1.80;;;;;;;;;;5046289;28;20025;-75
2022/06/08 08:22:56;;;;;;;4.57;2.20;;;;;;;;;;5046773;28;20108;-74
2022/06/08 08:25:22;;;;;;;4.57;1.95;;;;;;;;;;5044376;28;20040;-75
2022/06/08 08:27:48;;;;;;;4.45;2.10;;;;;;;;;;5049157;28;20060;-74
2022/06/08 08:30:16;;;;;;;4.70;2.15;;;;;;;;;;5045946;28;20112;-74
2022/06/08 08:32:41;;;;;;;5.80;2.17;;;;;;;;;;5049003;28;20128;-74
2022/06/08 08:35:07;;;;;;;6.07;2.70;;;;;;;;;;5045464;28;20562;-74
2022/06/08 08:37:33;;;;;;;5.07;2.00;;;;;;;;;;5046069;28;20033;-74
2022/06/08 08:39:58;;;;;;;4.32;2.40;;;;;;;;;;5046666;28;20493;-76
2022/06/08 08:42:24;;;;;;;8.35;2.70;;;;;;;;;;5046683;28;20029;-76
2022/06/08 08:44:49;;;;;;;7.07;2.45;;;;;;;;;;5044967;28;20037;-76
2022/06/08 08:47:25;;;;;;;4.87;2.70;;;;;;;;;;5046340;28;20028;-75
2022/06/08 08:49:56;;;;;;;4.40;2.80;;;;;;;;;;5046211;28;20272;-75
2022/06/08 08:52:36;;;;;;;8.55;2.80;;;;;;;;;;5045752;28;20024;-75
2022/06/08 08:55:29;;;;;;;7.72;3.25;;;;;;;;;;5047158;28;20025;-74
2022/06/08 08:58:03;;;;;;;11.10;3.25;;;;;;;;;;5045879;28;20098;-75
2022/06/08 09:00:52;;;;;;;6.13;1.80;;;;;;;;;;5045438;28;20037;-74
2022/06/08 09:03:31;;;;;;;6.80;3.00;;;;;;;;;;5047362;28;20473;-75
2022/06/08 09:06:21;;;;;;;12.55;3.20;;;;;;;;;;5050053;28;20032;-75
2022/06/08 09:08:52;;;;;;;7.03;2.22;;;;;;;;;;5048442;28;20036;-74
2022/06/08 09:11:22;;;;;;;12.98;2.30;;;;;;;;;;5049301;28;20090;-75
2022/06/08 09:13:56;;;;;;;4.75;2.00;;;;;;;;;;5050373;28;20028;-74
2022/06/08 09:16:39;;;;;;;6.75;2.15;;;;;;;;;;5050301;28;20102;-76
2022/06/08 09:19:35;;;;;;;7.22;2.17;;;;;;;;;;5050377;28;20032;-74
2022/06/08 09:22:04;;;;;;;7.03;1.70;;;;;;;;;;5050095;28;20036;-73
2022/06/08 09:24:35;;;;;;;7.53;1.83;;;;;;;;;;5048540;28;20033;-76
2022/06/08 09:27:26;;;;;;;4.78;1.33;;;;;;;;;;5050031;28;20056;-73
2022/06/08 09:30:00;;;;;;;4.28;1.17;;;;;;;;;;5046655;28;20036;-73
2022/06/08 09:32:39;;;;;;;4.88;1.75;;;;;;;;;;5050113;28;20029;-75
2022/06/08 09:35:28;;;;;;;4.07;1.40;;;;;;;;;;5050237;28;20412;-75
2022/06/08 09:38:12;;;;;;;5.10;1.90;;;;;;;;;;5045443;28;20445;-74
2022/06/08 09:40:46;;;;;;;3.45;1.60;;;;;;;;;;5043983;28;20052;-75
2022/06/08 09:43:32;;;;;;;3.95;1.23;;;;;;;;;;5048434;28;20055;-72
2022/06/08 09:46:16;;;;;;;5.82;1.48;;;;;;;;;;5049477;28;20139;-75
2022/06/08 09:51:59;;;;;;;2.47;1.35;;;;;;;;;;5042534;28;20409;-74
2022/06/08 09:54:31;;;;;;;7.72;1.95;;;;;;;;;;5047900;28;20036;-74
2022/06/08 09:57:20;;;;;;;3.75;1.50;;;;;;;;;;5048937;28;20036;-74
2022/06/08 10:00:04;;;;;;;3.85;1.55;;;;;;;;;;5046407;28;20032;-73
2022/06/08 10:02:54;;;;;;;4.28;1.60;;;;;;;;;;5042393;28;20420;-77
2022/06/08 10:05:25;;;;;;;4.70;1.80;;;;;;;;;;5047975;28;20024;-74
2022/06/08 10:08:17;;;;;;;4.85;1.60;;;;;;;;;;5049426;28;20033;-78
2022/06/08 10:11:34;;;;;;;4.90;1.63;;;;;;;;;;5048115;28;20028;-74
2022/06/08 10:13:55;;;;;;;5.57;1.92;;;;;;;;;;5048409;28;20075;-75
2022/06/08 10:16:23;;;;;;;5.97;1.95;;;;;;;;;;5047005;28;20029;-76
2022/06/08 10:18:53;;;;;;;6.78;2.30;;;;;;;;;;5045423;28;20635;-75
2022/06/08 10:21:25;;;;;;;3.60;1.90;;;;;;;;;;5045951;28;20482;-74
2022/06/08 10:24:15;;;;;;;5.22;1.80;;;;;;;;;;5047263;28;20059;-75
2022/06/08 10:26:48;;;;;;;7.00;2.13;;;;;;;;;;5044169;28;20041;-73
2022/06/08 10:29:29;;;;;;;4.88;2.00;;;;;;;;;;5048899;28;20025;-74
2022/06/08 10:32:26;;;;;;;8.38;2.22;;;;;;;;;;5049466;28;20029;-73
2022/06/08 10:34:54;;;;;;;8.40;2.08;;;;;;;;;;5015220;28;20314;-74
2022/06/08 10:37:30;;;;;;;5.50;2.33;;;;;;;;;;5049015;28;20163;-74
2022/06/08 10:39:56;;;;;;;4.15;1.80;;;;;;;;;;5049075;28;20032;-74
2022/06/08 10:42:46;;;;;;;6.05;1.85;;;;;;;;;;5049140;28;20033;-74
2022/06/08 10:45:20;;;;;;;4.47;2.03;;;;;;;;;;5048888;28;20479;-74
2022/06/08 10:47:53;;;;;;;9.18;1.90;;;;;;;;;;5048935;28;20031;-73
2022/06/08 10:50:34;;;;;;;6.88;1.73;;;;;;;;;;5048790;28;20033;-72
2022/06/08 10:56:24;;;;;;;2.80;1.65;;;;;;;;;;5048875;28;20067;-75
2022/06/08 10:59:10;;;;;;;6.22;2.00;;;;;;;;;;5048580;28;20029;-74
2022/06/08 11:01:53;;;;;;;5.95;1.65;;;;;;;;;;5049136;28;20499;-74
2022/06/08 11:04:31;;;;;;;5.38;1.95;;;;;;;;;;5045526;28;20037;-75
2022/06/08 11:07:20;;;;;;;5.30;1.80;;;;;;;;;;5039708;28;20025;-74
2022/06/08 11:09:51;;;;;;;5.35;1.98;;;;;;;;;;5044452;28;20028;-74
2022/06/08 11:12:29;;;;;;;4.22;1.77;;;;;;;;;;5044560;28;20043;-75
2022/06/08 11:15:00;;;;;;;7.68;2.08;;;;;;;;;;5044741;28;20471;-75
2022/06/08 11:17:44;;;;;;;7.25;2.00;;;;;;;;;;5045195;28;20501;-73
2022/06/08 11:20:41;;;;;;;4.85;1.30;;;;;;;;;;5043735;28;20518;-77
2022/06/08 11:23:35;;;;;;;7.75;1.90;;;;;;;;;;5045002;28;20021;-74
2022/06/08 11:26:03;;;;;;;6.22;2.00;;;;;;;;;;5041264;28;20147;-74
2022/06/08 11:28:43;;;;;;;4.10;1.80;;;;;;;;;;5045658;28;20057;-75
2022/06/08 11:31:28;;;;;;;4.47;1.70;;;;;;;;;;5045521;28;20021;-76
2022/06/08 11:34:06;;;;;;;4.38;1.38;;;;;;;;;;5043503;28;20043;-74
2022/06/08 11:36:40;;;;;;;5.18;2.05;;;;;;;;;;5043386;28;20028;-76
2022/06/08 11:39:33;;;;;;;4.95;1.60;;;;;;;;;;5044543;28;20079;-73
2022/06/08 11:42:22;;;;;;;5.18;1.40;;;;;;;;;;5051001;28;20032;-74
2022/06/08 11:44:56;;;;;;;5.03;1.80;;;;;;;;;;5011129;28;20136;-75
2022/06/08 11:47:29;;;;;;;3.95;2.10;;;;;;;;;;5061844;28;20109;-76
2022/06/08 11:50:02;;;;;;;3.78;1.60;;;;;;;;;;5045836;28;20470;-77
2022/06/08 11:52:35;;;;;;;5.95;2.13;;;;;;;;;;5034831;28;20032;-79
2022/06/08 11:55:08;;;;;;;;;;;;;;;;;;5044567;28;20124;-77
2022/06/08 11:57:34;;;;;;;;;;;;;;;;;;5045440;28;19913;-76
2022/06/08 12:00:01;;;;;;;4.70;1.83;;;;;;;;;;5045262;28;19913;-76
2022/06/08 12:02:35;;;;;;;3.72;1.77;;;;;;;;;;5045372;28;20720;-72
2022/06/08 12:05:03;;;;;;;3.92;1.60;;;;;;;;;;5043987;28;20138;-77
2022/06/08 12:08:01;;;;;;;6.50;2.70;;;;;;;;;;5043607;28;20037;-75
2022/06/08 12:10:31;;;;;;;8.20;2.80;;;;;;;;;;5020817;28;20044;-74
2022/06/08 12:12:58;;;;;;;5.03;2.08;;;;;;;;;;5045409;28;20029;-73
2022/06/08 12:15:23;;;;;;;7.97;2.15;;;;;;;;;;5043894;28;20078;-75
2022/06/08 12:17:49;;;;;;;3.73;1.70;;;;;;;;;;5043704;28;20025;-74
2022/06/08 12:20:35;;;;;;;5.18;1.80;;;;;;;;;;5044443;28;20311;-72
2022/06/08 12:23:01;;;;;;;3.38;1.83;;;;;;;;;;5044712;28;20083;-76
2022/06/08 12:25:28;;;;;;;4.78;2.15;;;;;;;;;;5043618;28;20029;-77
2022/06/08 12:28:11;;;;;;;4.43;1.70;;;;;;;;;;5042859;28;20013;-77
2022/06/08 12:30:47;;;;;;;5.68;2.13;;;;;;;;;;5045082;28;20063;-76
2022/06/08 12:33:18;;;;;;;5.00;1.80;;;;;;;;;;5043047;28;20025;-78
2022/06/08 12:36:20;;;;;;;6.18;2.00;;;;;;;;;;5043153;28;20024;-81
2022/06/08 12:39:10;;;;;;;4.07;1.80;;;;;;;;;;5039346;28;20036;-77
2022/06/08 12:41:49;;;;;;;6.78;4.15;;;;;;;;;;5040655;28;20025;-75
2022/06/08 12:44:26;;;;;;;6.43;3.33;;;;;;;;;;5044791;28;20024;-77
2022/06/08 12:46:59;;;;;;;7.63;5.22;;;;;;;;;;5046402;28;20032;-76
2022/06/08 12:49:38;;;;;;;8.68;4.70;;;;;;;;;;5027790;28;20025;-75
2022/06/08 12:52:19;;;;;;;5.20;2.78;;;;;;;;;;5034441;28;20060;-76
2022/06/08 12:54:44;;;;;;;6.70;3.50;;;;;;;;;;5049070;28;20479;-79
2022/06/08 12:57:20;;;;;;;7.70;2.95;;;;;;;;;;5047720;28;20043;-76
2022/06/08 12:59:49;;;;;;;4.78;1.73;;;;;;;;;;5049399;28;20029;-76
2022/06/08 13:02:38;;;;;;;3.42;1.60;;;;;;;;;;5048611;28;20056;-78
2022/06/08 13:05:17;;;;;;;4.20;2.00;;;;;;;;;;5047206;28;20033;-76
2022/06/08 13:07:43;;;;;;;3.88;1.35;;;;;;;;;;5047518;28;20482;-74
2022/06/08 13:10:09;;;;;;;5.75;2.15;;;;;;;;;;5048774;28;20063;-77
2022/06/08 13:12:46;;;;;;;4.80;2.38;;;;;;;;;;5046514;28;20118;-73
2022/06/08 13:15:19;;;;;;;6.78;1.83;;;;;;;;;;5047095;28;20223;-74
2022/06/08 13:17:45;;;;;;;3.55;1.73;;;;;;;;;;5047780;28;20375;-75
2022/06/08 13:20:19;;;;;;;3.20;2.13;;;;;;;;;;5048025;28;20086;-79
2022/06/08 13:22:45;;;;;;;4.65;1.50;;;;;;;;;;5047821;28;20374;-76
2022/06/08 13:25:19;;;;;;;3.92;1.55;;;;;;;;;;5046171;28;20087;-76
2022/06/08 13:27:45;;;;;;;3.60;1.90;;;;;;;;;;5045923;28;20029;-75
2022/06/08 13:30:23;;;;;;;3.53;1.92;;;;;;;;;;5051869;28;20253;-76
2022/06/08 13:32:49;;;;;;;3.78;1.67;;;;;;;;;;5047710;28;20037;-76
2022/06/08 13:35:21;;;;;;;2.95;1.50;;;;;;;;;;5047747;28;20515;-77
2022/06/08 13:37:48;;;;;;;4.60;1.90;;;;;;;;;;5048370;28;20518;-76
2022/06/08 13:40:17;;;;;;;3.60;1.70;;;;;;;;;;5049251;28;20119;-78
2022/06/08 13:42:44;;;;;;;6.22;1.70;;;;;;;;;;5051259;28;20040;-77
2022/06/08 13:45:38;;;;;;;4.47;1.85;;;;;;;;;;5046871;28;20036;-76
2022/06/08 13:48:12;;;;;;;5.07;1.80;;;;;;;;;;5044575;28;20068;-77
2022/06/08 13:50:40;;;;;;;2.88;1.52;;;;;;;;;;5046982;28;20024;-75
2022/06/08 13:53:11;;;;;;;2.53;1.20;;;;;;;;;;5046621;28;20064;-82
2022/06/08 13:55:41;;;;;;;3.65;1.30;;;;;;;;;;5049948;28;20017;-78
2022/06/08 13:58:11;;;;;;;4.35;1.48;;;;;;;;;;5046509;28;20021;-76
2022/06/08 14:00:41;;;;;;;4.00;1.40;;;;;;;;;;5047109;28;20049;-78
2022/06/08 14:03:21;;;;;;;1.83;1.30;;;;;;;;;;5048460;28;20486;-78
2022/06/08 14:14:08;;;;;;;1.60;0.93;;;;;;;;;;5049720;28;20395;-75
2022/06/08 14:16:47;;;;;;;2.63;1.10;;;;;;;;;;5048060;28;20021;-83
2022/06/08 14:19:18;;;;;;;2.38;1.33;;;;;;;;;;5040116;28;20041;-76
2022/06/08 14:21:44;;;;;;;1.48;1.10;;;;;;;;;;5047940;28;20029;-73
2022/06/08 14:24:19;;;;;;;4.97;1.00;;;;;;;;;;5050639;28;20029;-78
2022/06/08 14:26:44;;;;;;;3.15;1.30;;;;;;;;;;5050838;28;20074;-76
2022/06/08 14:29:09;;;;;;;2.10;1.08;;;;;;;;;;5050213;28;20025;-73
2022/06/08 14:31:37;;;;;;;3.45;1.20;;;;;;;;;;5042613;28;20064;-75
2022/06/08 14:34:12;;;;;;;1.85;1.10;;;;;;;;;;5049058;28;20032;-75
2022/06/08 14:36:38;;;;;;;1.45;0.88;;;;;;;;;;5051089;28;20020;-76
2022/06/08 14:39:04;;;;;;;0.63;0.60;;;;;;;;;;5050427;28;20482;-75
2022/06/08 14:41:39;;;;;;;1.20;0.85;;;;;;;;;;5048300;28;20036;-74
2022/06/08 14:44:08;;;;;;;1.95;0.70;;;;;;;;;;5050962;28;20480;-77
2022/06/08 14:46:38;;;;;;;1.02;0.75;;;;;;;;;;5049183;28;20101;-75
2022/06/08 14:49:03;;;;;;;3.70;1.05;;;;;;;;;;5049753;28;20319;-77
2022/06/08 14:51:28;;;;;;;2.03;0.80;;;;;;;;;;5047100;28;20033;-77
2022/06/08 14:53:55;;;;;;;2.17;0.85;;;;;;;;;;5049730;28;20036;-76
2022/06/08 14:56:25;;;;;;;0.80;0.70;;;;;;;;;;5049937;28;20234;-76
2022/06/08 14:59:00;;;;;;;3.17;0.80;;;;;;;;;;5049646;28;20133;-76
2022/06/08 15:01:29;;;;;;;2.80;1.00;;;;;;;;;;5046958;28;20032;-78
2022/06/08 15:03:55;;;;;;;1.42;0.90;;;;;;;;;;5049848;28;20139;-75
2022/06/08 15:06:21;;;;;;;1.20;0.90;;;;;;;;;;5049398;28;20115;-76
2022/06/08 15:08:46;;;;;;;1.90;0.73;;;;;;;;;;5049223;28;20169;-81
2022/06/08 15:12:20;;;;;;;1.40;1.02;;;;;;;;;;5048349;28;20498;-76
2022/06/08 15:14:16;;;;;;;0.85;0.50;;;;;;;;;;5041495;28;20097;-75
2022/06/08 15:16:42;;;;;;;3.30;0.65;;;;;;;;;;5048690;28;20151;-76
2022/06/08 15:19:16;;;;;;;1.73;0.80;;;;;;;;;;5029034;28;20025;-77
2022/06/08 15:21:41;;;;;;;1.95;0.82;;;;;;;;;;5038981;28;20087;-77
2022/06/08 15:24:06;;;;;;;1.27;0.77;;;;;;;;;;5048903;28;20475;-77
2022/06/08 15:26:32;;;;;;;1.65;0.90;;;;;;;;;;5048896;28;20075;-76